createdAt,value
2019-05-14T00:01:03.490Z,2.20
2019-05-14T00:03:32.269Z,2.00
2019-05-14T00:06:02.272Z,2.53
2019-05-14T00:08:31.687Z,1.97
2019-05-14T00:11:01.580Z,2.10
2019-05-14T00:13:32.187Z,2.20
2019-05-14T00:16:01.627Z,2.60
2019-05-14T00:18:31.456Z,2.30
2019-05-14T00:21:01.888Z,2.33
2019-05-14T00:23:32.090Z,2.40
2019-05-14T00:26:01.867Z,2.10
2019-05-14T00:28:31.769Z,2.40
2019-05-14T00:31:02.939Z,2.20
2019-05-14T00:33:31.892Z,2.20
2019-05-14T00:36:02.054Z,2.17
2019-05-14T00:38:31.646Z,2.03
2019-05-14T00:41:02.060Z,2.20
2019-05-14T00:43:32.397Z,2.10
2019-05-14T00:46:01.846Z,2.13
2019-05-14T00:48:31.736Z,2.20
2019-05-14T00:51:02.264Z,1.80
2019-05-14T00:53:32.160Z,1.97
2019-05-14T00:56:02.157Z,1.90
2019-05-14T00:58:32.035Z,1.70
2019-05-14T01:01:01.704Z,2.10
2019-05-14T01:03:32.452Z,2.00
2019-05-14T01:06:03.024Z,2.60
2019-05-14T01:08:32.366Z,3.87
2019-05-14T01:11:01.738Z,3.90
2019-05-14T01:13:31.239Z,3.40
2019-05-14T01:16:01.554Z,3.23
2019-05-14T01:18:32.249Z,2.93
2019-05-14T01:21:01.818Z,3.10
2019-05-14T01:23:32.308Z,3.00
2019-05-14T01:26:02.327Z,2.70
2019-05-14T01:28:32.282Z,3.23
2019-05-14T01:31:01.572Z,2.80
2019-05-14T01:33:31.880Z,2.40
2019-05-14T01:36:02.110Z,2.40
2019-05-14T01:38:31.675Z,2.40
2019-05-14T01:41:01.826Z,2.23
2019-05-14T01:43:31.650Z,2.30
2019-05-14T01:46:02.087Z,2.20
2019-05-14T01:48:31.524Z,2.70
2019-05-14T01:51:01.538Z,2.30
2019-05-14T01:53:31.299Z,2.57
2019-05-14T01:56:01.541Z,2.43
2019-05-14T01:58:31.291Z,2.80
2019-05-14T02:01:01.948Z,2.57
2019-05-14T02:03:32.285Z,2.80
2019-05-14T02:06:01.757Z,3.57
2019-05-14T02:08:32.167Z,3.80
2019-05-14T02:11:01.849Z,3.97
2019-05-14T02:13:32.217Z,4.50
2019-05-14T02:16:02.250Z,4.20
2019-05-14T02:18:31.867Z,3.90
2019-05-14T02:21:01.539Z,4.33
2019-05-14T02:23:32.024Z,4.30
2019-05-14T02:26:02.457Z,4.27
2019-05-14T02:28:31.896Z,4.23
2019-05-14T02:31:03.347Z,3.90
2019-05-14T02:33:31.810Z,3.97
2019-05-14T02:36:00.845Z,3.43
2019-05-14T02:38:30.277Z,3.50
2019-05-14T02:41:00.227Z,3.67
2019-05-14T02:43:29.715Z,3.10
2019-05-14T02:46:10.612Z,2.70
2019-05-14T02:48:29.762Z,3.57
2019-05-14T02:50:59.782Z,2.97
2019-05-14T02:53:29.800Z,2.70
2019-05-14T02:55:59.686Z,2.73
2019-05-14T02:58:29.816Z,2.97
2019-05-14T03:01:00.517Z,2.70
2019-05-14T03:03:30.147Z,2.53
2019-05-14T03:06:00.331Z,2.60
2019-05-14T03:08:30.664Z,2.77
2019-05-14T03:11:00.444Z,2.60
2019-05-14T03:13:29.984Z,2.10
2019-05-14T03:15:59.687Z,2.30
2019-05-14T03:18:29.744Z,2.20
2019-05-14T03:21:00.719Z,2.00
2019-05-14T03:23:30.498Z,1.93
2019-05-14T03:26:00.830Z,1.93
2019-05-14T03:28:30.657Z,2.50
2019-05-14T03:31:02.618Z,2.20
2019-05-14T03:33:33.065Z,1.93
2019-05-14T03:36:09.546Z,2.00
2019-05-14T03:38:32.495Z,2.07
2019-05-14T03:41:01.567Z,2.00
2019-05-14T03:43:30.756Z,1.70
2019-05-14T03:45:59.824Z,1.80
2019-05-14T03:48:29.817Z,1.73
2019-05-14T03:51:00.096Z,1.60
2019-05-14T03:53:30.078Z,1.67
2019-05-14T03:56:00.239Z,1.83
2019-05-14T03:58:30.386Z,1.90
2019-05-14T04:01:01.833Z,1.57
2019-05-14T04:03:31.990Z,1.57
2019-05-14T04:06:02.846Z,1.47
2019-05-14T04:08:33.361Z,1.60
2019-05-14T04:11:02.667Z,1.40
2019-05-14T04:13:33.499Z,1.80
2019-05-14T04:16:04.072Z,1.70
2019-05-14T04:18:40.108Z,1.50
2019-05-14T04:21:10.013Z,1.80
2019-05-14T04:23:40.634Z,1.57
2019-05-14T04:26:11.197Z,1.60
2019-05-14T04:28:43.029Z,1.70
2019-05-14T04:31:13.191Z,1.70
2019-05-14T04:33:45.683Z,1.63
2019-05-14T04:36:14.869Z,1.70
2019-05-14T04:38:51.250Z,1.50
2019-05-14T04:41:22.895Z,1.70
2019-05-14T04:43:52.014Z,1.63
2019-05-14T04:46:21.137Z,1.87
2019-05-14T04:48:51.209Z,1.47
2019-05-14T04:51:20.566Z,1.80
2019-05-14T04:53:50.432Z,2.10
2019-05-14T04:56:20.009Z,1.90
2019-05-14T04:58:50.051Z,1.93
2019-05-14T05:01:20.706Z,2.30
2019-05-14T05:03:50.655Z,2.00
2019-05-14T05:06:20.110Z,2.07
2019-05-14T05:08:49.948Z,2.10
2019-05-14T05:11:21.367Z,2.20
2019-05-14T05:13:50.090Z,1.97
2019-05-14T05:16:19.500Z,2.33
2019-05-14T05:18:49.302Z,2.03
2019-05-14T05:21:19.431Z,2.13
2019-05-14T05:23:49.399Z,1.90
2019-05-14T05:26:18.813Z,2.30
2019-05-14T05:29:02.564Z,1.90
2019-05-14T05:31:18.855Z,1.80
2019-05-14T05:33:49.035Z,1.80
2019-05-14T05:36:18.571Z,1.80
2019-05-14T05:38:49.165Z,1.80
2019-05-14T05:41:19.171Z,1.80
2019-05-14T05:43:48.649Z,1.73
2019-05-14T05:46:19.255Z,1.70
2019-05-14T05:48:48.615Z,2.10
2019-05-14T05:51:18.836Z,1.90
2019-05-14T05:53:48.597Z,1.80
2019-05-14T05:56:18.680Z,1.90
2019-05-14T05:58:48.877Z,1.50
2019-05-14T06:01:19.550Z,1.63
2019-05-14T06:03:49.332Z,1.50
2019-05-14T06:06:19.258Z,2.10
2019-05-14T06:08:49.271Z,1.53
2019-05-14T06:11:19.406Z,1.30
2019-05-14T06:13:48.873Z,1.30
2019-05-14T06:16:18.674Z,1.50
2019-05-14T06:18:48.647Z,1.50
2019-05-14T06:21:19.087Z,1.40
2019-05-14T06:23:49.309Z,1.43
2019-05-14T06:26:19.363Z,1.40
2019-05-14T06:28:49.490Z,1.40
2019-05-14T06:31:19.516Z,1.50
2019-05-14T06:33:49.075Z,1.33
2019-05-14T06:36:19.443Z,1.50
2019-05-14T06:38:49.760Z,1.60
2019-05-14T06:41:19.402Z,1.67
2019-05-14T06:43:48.985Z,1.37
2019-05-14T06:46:19.285Z,1.50
2019-05-14T06:48:49.006Z,1.43
2019-05-14T06:51:20.093Z,1.87
2019-05-14T06:53:49.860Z,1.60
2019-05-14T06:56:21.679Z,1.30
2019-05-14T06:58:50.065Z,1.60
2019-05-14T07:01:19.163Z,1.60
2019-05-14T07:03:48.989Z,1.53
2019-05-14T07:06:19.688Z,1.60
2019-05-14T07:08:52.330Z,1.50
2019-05-14T07:11:19.650Z,1.40
2019-05-14T07:13:50.064Z,1.40
2019-05-14T07:16:19.746Z,1.67
2019-05-14T07:18:53.680Z,1.47
2019-05-14T07:21:20.102Z,2.00
2019-05-14T07:23:49.299Z,1.63
2019-05-14T07:26:19.275Z,1.20
2019-05-14T07:28:49.137Z,1.40
2019-05-14T07:31:18.837Z,1.67
2019-05-14T07:33:49.336Z,1.33
2019-05-14T07:36:19.127Z,1.30
2019-05-14T07:38:49.240Z,1.10
2019-05-14T07:41:19.202Z,1.30
2019-05-14T07:43:48.687Z,1.80
2019-05-14T07:46:19.176Z,1.43
2019-05-14T07:49:04.007Z,1.40
2019-05-14T07:51:19.369Z,1.33
2019-05-14T07:53:48.913Z,1.50
2019-05-14T07:56:20.183Z,1.60
2019-05-14T07:58:49.443Z,1.23
2019-05-14T08:01:18.969Z,1.40
2019-05-14T08:03:48.838Z,1.50
2019-05-14T08:06:19.019Z,1.10
2019-05-14T08:08:49.710Z,1.30
2019-05-14T08:11:19.278Z,1.40
2019-05-14T08:13:49.318Z,1.50
2019-05-14T08:16:18.998Z,1.40
2019-05-14T08:18:48.902Z,1.53
2019-05-14T08:21:19.365Z,1.30
2019-05-14T08:23:48.842Z,1.57
2019-05-14T08:26:19.102Z,1.23
2019-05-14T08:28:48.983Z,1.25
2019-05-14T08:31:18.807Z,1.50
2019-05-14T08:33:48.933Z,1.40
2019-05-14T08:36:18.712Z,1.40
2019-05-14T08:38:49.946Z,1.90
2019-05-14T08:41:19.789Z,1.30
2019-05-14T08:43:49.298Z,1.82
2019-05-14T08:46:19.099Z,1.40
2019-05-14T08:48:49.623Z,1.77
2019-05-14T08:51:19.161Z,1.40
2019-05-14T08:53:50.288Z,1.50
2019-05-14T08:56:19.869Z,1.25
2019-05-14T08:58:49.597Z,1.50
2019-05-14T09:01:19.651Z,1.10
2019-05-14T09:03:49.598Z,1.40
2019-05-14T09:06:19.085Z,1.52
2019-05-14T09:08:49.553Z,1.30
2019-05-14T09:11:24.644Z,1.98
2019-05-14T09:13:49.948Z,1.52
2019-05-14T09:16:19.586Z,1.52
2019-05-14T09:18:49.316Z,1.47
2019-05-14T09:21:20.564Z,1.60
2019-05-14T09:23:49.330Z,1.82
2019-05-14T09:26:18.419Z,1.62
2019-05-14T09:28:48.237Z,1.60
2019-05-14T09:31:19.576Z,1.37
2019-05-14T09:33:49.407Z,1.30
2019-05-14T09:36:23.974Z,1.20
2019-05-14T09:38:51.190Z,1.57
2019-05-14T09:41:20.528Z,1.22
2019-05-14T09:43:49.537Z,1.50
2019-05-14T09:46:18.822Z,1.65
2019-05-14T09:48:48.618Z,1.52
2019-05-14T09:51:18.590Z,1.47
2019-05-14T09:53:49.066Z,1.85
2019-05-14T09:56:18.864Z,1.37
2019-05-14T09:58:49.677Z,1.20
2019-05-14T10:01:19.547Z,1.67
2019-05-14T10:03:49.574Z,1.75
2019-05-14T10:06:20.678Z,1.60
2019-05-14T10:08:49.939Z,1.30
2019-05-14T10:11:19.113Z,1.67
2019-05-14T10:13:48.527Z,1.60
2019-05-14T10:16:18.823Z,1.40
2019-05-14T10:18:49.782Z,1.07
2019-05-14T10:21:19.310Z,1.50
2019-05-14T10:23:48.473Z,1.57
2019-05-14T10:26:18.597Z,1.90
2019-05-14T10:28:48.481Z,1.40
2019-05-14T10:31:18.382Z,1.52
2019-05-14T10:33:48.586Z,1.40
2019-05-14T10:36:19.250Z,1.25
2019-05-14T10:38:48.653Z,1.82
2019-05-14T10:41:18.426Z,1.60
2019-05-14T10:43:49.686Z,1.40
2019-05-14T10:46:19.299Z,1.35
2019-05-14T10:48:48.641Z,1.60
2019-05-14T10:51:18.156Z,1.57
2019-05-14T10:53:48.889Z,1.47
2019-05-14T10:56:19.326Z,1.40
2019-05-14T10:58:49.218Z,1.55
2019-05-14T11:01:22.501Z,2.20
2019-05-14T11:03:49.212Z,1.50
2019-05-14T11:06:18.909Z,1.52
2019-05-14T11:08:49.103Z,1.50
2019-05-14T11:11:18.721Z,1.60
2019-05-14T11:13:47.998Z,1.42
2019-05-14T11:16:19.020Z,1.45
2019-05-14T11:18:49.683Z,1.40
2019-05-14T11:21:26.126Z,1.60
2019-05-14T11:23:49.502Z,1.50
2019-05-14T11:26:18.730Z,1.30
2019-05-14T11:28:49.189Z,1.17
2019-05-14T11:31:19.230Z,1.50
2019-05-14T11:33:49.639Z,1.55
2019-05-14T11:36:19.195Z,1.52
2019-05-14T11:38:50.822Z,1.40
2019-05-14T11:41:19.518Z,1.55
2019-05-14T11:43:49.529Z,2.08
2019-05-14T11:46:33.108Z,1.40
2019-05-14T11:48:49.662Z,1.15
2019-05-14T11:51:23.783Z,1.37
2019-05-14T11:53:49.776Z,1.30
2019-05-14T11:56:19.577Z,1.30
2019-05-14T11:58:48.921Z,1.30
2019-05-14T12:01:18.899Z,1.55
2019-05-14T12:03:50.400Z,1.60
2019-05-14T12:06:19.226Z,1.30
2019-05-14T12:08:48.362Z,1.47
2019-05-14T12:11:19.218Z,1.37
2019-05-14T12:13:48.869Z,1.52
2019-05-14T12:16:18.066Z,1.40
2019-05-14T12:18:48.341Z,1.40
2019-05-14T12:21:17.708Z,1.70
2019-05-14T12:23:46.839Z,1.30
2019-05-14T12:26:18.848Z,1.42
2019-05-14T12:28:49.158Z,1.50
2019-05-14T12:31:17.531Z,1.52
2019-05-14T12:33:48.847Z,1.47
2019-05-14T12:36:19.276Z,1.22
2019-05-14T12:38:48.318Z,1.47
2019-05-14T12:41:19.347Z,1.40
2019-05-14T12:43:48.286Z,1.22
2019-05-14T12:46:19.843Z,1.45
2019-05-14T12:48:49.471Z,1.52
2019-05-14T12:51:18.865Z,1.40
2019-05-14T12:53:48.736Z,1.57
2019-05-14T12:56:18.767Z,1.80
2019-05-14T12:58:49.000Z,1.40
2019-05-14T13:01:19.950Z,1.47
2019-05-14T13:03:49.151Z,1.52
2019-05-14T13:06:19.239Z,1.37
2019-05-14T13:08:49.119Z,1.35
2019-05-14T13:11:18.589Z,1.67
2019-05-14T13:13:49.014Z,1.40
2019-05-14T13:16:19.309Z,1.45
2019-05-14T13:18:49.833Z,1.67
2019-05-14T13:21:19.597Z,1.70
2019-05-14T13:23:48.896Z,1.32
2019-05-14T13:26:18.867Z,1.55
2019-05-14T13:28:50.845Z,1.35
2019-05-14T13:31:19.225Z,1.42
2019-05-14T13:33:49.053Z,1.27
2019-05-14T13:36:20.202Z,1.67
2019-05-14T13:38:49.315Z,1.47
2019-05-14T13:41:20.036Z,1.37
2019-05-14T13:43:50.378Z,1.22
2019-05-14T13:46:19.852Z,1.35
2019-05-14T13:48:49.831Z,1.37
2019-05-14T13:51:19.660Z,1.32
2019-05-14T13:53:49.934Z,1.50
2019-05-14T13:56:19.220Z,1.30
2019-05-14T13:58:49.085Z,1.40
2019-05-14T14:01:19.333Z,1.45
2019-05-14T14:04:02.430Z,1.30
2019-05-14T14:06:20.715Z,1.45
2019-05-14T14:08:50.195Z,1.70
2019-05-14T14:11:19.568Z,1.10
2019-05-14T14:13:49.119Z,1.50
2019-05-14T14:16:19.596Z,1.67
2019-05-14T14:18:50.126Z,1.25
2019-05-14T14:21:19.853Z,1.50
2019-05-14T14:23:49.753Z,1.20
2019-05-14T14:26:19.090Z,1.20
2019-05-14T14:28:49.431Z,1.30
2019-05-14T14:31:19.129Z,1.10
2019-05-14T14:33:48.847Z,1.50
2019-05-14T14:36:19.989Z,1.12
2019-05-14T14:38:49.678Z,1.05
2019-05-14T14:41:19.581Z,1.27
2019-05-14T14:43:53.590Z,1.02
2019-05-14T14:46:19.975Z,0.95
2019-05-14T14:48:49.679Z,0.90
2019-05-14T14:51:19.580Z,1.20
2019-05-14T14:53:58.820Z,1.10
2019-05-14T14:56:19.721Z,1.32
2019-05-14T14:58:49.497Z,1.20
2019-05-14T15:01:19.681Z,0.85
2019-05-14T15:03:50.379Z,1.30
2019-05-14T15:06:19.775Z,1.10
2019-05-14T15:08:49.758Z,1.20
2019-05-14T15:11:19.070Z,1.32
2019-05-14T15:13:48.449Z,0.98
2019-05-14T15:16:20.111Z,0.93
2019-05-14T15:18:49.783Z,0.95
2019-05-14T15:21:19.428Z,1.17
2019-05-14T15:24:05.552Z,1.22
2019-05-14T15:26:19.642Z,1.25
2019-05-14T15:28:49.401Z,1.30
2019-05-14T15:31:19.293Z,1.00
2019-05-14T15:33:50.933Z,1.30
2019-05-14T15:36:19.903Z,1.00
2019-05-14T15:38:49.134Z,1.30
2019-05-14T15:41:19.974Z,1.40
2019-05-14T15:43:49.038Z,1.00
2019-05-14T15:46:18.673Z,1.25
2019-05-14T15:48:48.803Z,1.22
2019-05-14T15:51:19.632Z,1.10
2019-05-14T15:54:05.544Z,1.42
2019-05-14T15:56:19.744Z,1.12
2019-05-14T15:58:48.830Z,1.20
2019-05-14T16:01:19.314Z,1.02
2019-05-14T16:03:48.680Z,1.17
2019-05-14T16:06:19.317Z,1.15
2019-05-14T16:08:48.943Z,0.98
2019-05-14T16:11:18.768Z,1.30
2019-05-14T16:13:49.288Z,1.00
2019-05-14T16:16:19.390Z,1.00
2019-05-14T16:18:48.944Z,0.88
2019-05-14T16:21:18.399Z,1.10
2019-05-14T16:23:47.524Z,1.12
2019-05-14T16:26:18.775Z,1.22
2019-05-14T16:28:47.380Z,1.22
2019-05-14T16:31:18.405Z,0.90
2019-05-14T16:33:49.345Z,1.37
2019-05-14T16:36:18.484Z,1.20
2019-05-14T16:38:48.441Z,1.10
2019-05-14T16:41:18.459Z,1.45
2019-05-14T16:43:49.421Z,0.90
2019-05-14T16:46:18.620Z,1.20
2019-05-14T16:48:48.844Z,1.30
2019-05-14T16:51:19.317Z,1.40
2019-05-14T16:53:48.923Z,1.30
2019-05-14T16:56:19.114Z,1.17
2019-05-14T16:58:48.576Z,1.07
2019-05-14T17:01:19.194Z,0.70
2019-05-14T17:03:49.574Z,1.40
2019-05-14T17:06:18.984Z,0.85
2019-05-14T17:08:48.920Z,1.15
2019-05-14T17:11:18.452Z,1.10
2019-05-14T17:13:48.892Z,1.45
2019-05-14T17:16:19.562Z,1.50
2019-05-14T17:18:48.973Z,1.25
2019-05-14T17:21:18.383Z,1.10
2019-05-14T17:23:48.892Z,1.22
2019-05-14T17:26:18.451Z,1.40
2019-05-14T17:28:48.843Z,1.40
2019-05-14T17:31:19.089Z,1.15
2019-05-14T17:33:49.289Z,1.20
2019-05-14T17:36:18.915Z,1.40
2019-05-14T17:38:49.131Z,1.10
2019-05-14T17:41:19.500Z,1.20
2019-05-14T17:43:49.501Z,0.98
2019-05-14T17:46:18.845Z,1.20
2019-05-14T17:48:48.614Z,1.22
2019-05-14T17:51:18.284Z,1.12
2019-05-14T17:53:49.362Z,1.10
2019-05-14T17:56:19.125Z,1.40
2019-05-14T17:58:49.197Z,1.40
2019-05-14T18:01:18.501Z,1.32
2019-05-14T18:03:49.047Z,1.40
2019-05-14T18:06:19.014Z,1.22
2019-05-14T18:08:48.250Z,1.25
2019-05-14T18:11:19.130Z,1.27
2019-05-14T18:13:48.603Z,1.20
2019-05-14T18:16:19.124Z,1.12
2019-05-14T18:18:49.340Z,1.07
2019-05-14T18:21:18.982Z,1.02
2019-05-14T18:23:49.158Z,1.10
2019-05-14T18:26:19.010Z,1.20
2019-05-14T18:28:48.349Z,1.12
2019-05-14T18:31:20.326Z,1.22
2019-05-14T18:33:49.154Z,1.25
2019-05-14T18:36:19.220Z,1.47
2019-05-14T18:38:49.323Z,1.20
2019-05-14T18:41:19.124Z,1.15
2019-05-14T18:43:48.496Z,1.60
2019-05-14T18:46:19.248Z,1.42
2019-05-14T18:48:48.854Z,1.30
2019-05-14T18:51:19.744Z,1.22
2019-05-14T18:53:49.204Z,1.30
2019-05-14T18:56:24.034Z,1.27
2019-05-14T18:58:49.196Z,1.62
2019-05-14T19:01:19.642Z,1.30
2019-05-14T19:03:49.544Z,1.60
2019-05-14T19:06:19.082Z,1.60
2019-05-14T19:08:48.525Z,1.45
2019-05-14T19:11:17.904Z,1.90
2019-05-14T19:13:48.317Z,1.10
2019-05-14T19:16:17.694Z,1.60
2019-05-14T19:18:48.728Z,1.35
2019-05-14T19:21:17.626Z,1.60
2019-05-14T19:23:48.969Z,1.30
2019-05-14T19:26:31.577Z,1.60
2019-05-14T19:28:48.632Z,1.92
2019-05-14T19:31:18.365Z,1.50
2019-05-14T19:33:48.783Z,1.60
2019-05-14T19:36:18.743Z,1.20
2019-05-14T19:38:48.227Z,1.42
2019-05-14T19:41:20.934Z,1.20
2019-05-14T19:43:48.314Z,1.60
2019-05-14T19:46:17.437Z,1.45
2019-05-14T19:48:48.375Z,1.15
2019-05-14T19:51:18.786Z,1.20
2019-05-14T19:53:48.886Z,1.30
2019-05-14T19:56:18.825Z,0.90
2019-05-14T19:58:47.946Z,1.57
2019-05-14T20:01:19.192Z,1.07
2019-05-14T20:03:47.892Z,1.33
2019-05-14T20:06:18.726Z,1.40
2019-05-14T20:08:48.265Z,1.47
2019-05-14T20:11:19.096Z,1.30
2019-05-14T20:13:48.578Z,1.30
2019-05-14T20:16:18.449Z,1.23
2019-05-14T20:18:48.811Z,1.40
2019-05-14T20:21:18.121Z,1.57
2019-05-14T20:23:48.102Z,1.53
2019-05-14T20:26:17.469Z,1.37
2019-05-14T20:28:48.385Z,1.60
2019-05-14T20:31:18.132Z,1.33
2019-05-14T20:33:48.548Z,1.90
2019-05-14T20:36:18.799Z,1.60
2019-05-14T20:38:48.216Z,1.33
2019-05-14T20:41:18.030Z,1.50
2019-05-14T20:43:47.992Z,1.47
2019-05-14T20:46:18.606Z,1.60
2019-05-14T20:48:47.952Z,1.83
2019-05-14T20:51:18.545Z,1.40
2019-05-14T20:53:48.747Z,1.23
2019-05-14T20:56:19.003Z,1.33
2019-05-14T20:58:48.378Z,1.30
2019-05-14T21:01:18.437Z,1.40
2019-05-14T21:03:48.309Z,1.70
2019-05-14T21:06:18.838Z,1.43
2019-05-14T21:08:49.040Z,1.40
2019-05-14T21:11:19.035Z,1.20
2019-05-14T21:13:50.420Z,1.30
2019-05-14T21:16:19.214Z,1.40
2019-05-14T21:18:48.884Z,1.50
2019-05-14T21:21:18.581Z,1.30
2019-05-14T21:23:49.041Z,1.20
2019-05-14T21:26:19.385Z,1.60
2019-05-14T21:28:48.823Z,2.07
2019-05-14T21:31:18.229Z,1.70
2019-05-14T21:33:48.985Z,2.07
2019-05-14T21:36:19.398Z,2.00
2019-05-14T21:38:49.215Z,1.70
2019-05-14T21:41:20.555Z,2.40
2019-05-14T21:43:49.380Z,2.50
2019-05-14T21:46:19.454Z,2.60
2019-05-14T21:48:48.735Z,2.43
2019-05-14T21:51:18.143Z,2.30
2019-05-14T21:53:48.297Z,2.13
2019-05-14T21:56:21.268Z,2.20
2019-05-14T21:58:48.352Z,2.27
2019-05-14T22:01:18.795Z,2.20
2019-05-14T22:03:48.574Z,2.17
2019-05-14T22:06:18.320Z,2.10
2019-05-14T22:08:48.804Z,2.00
2019-05-14T22:11:18.879Z,2.40
2019-05-14T22:13:49.632Z,2.00
2019-05-14T22:16:19.015Z,1.80
2019-05-14T22:18:48.456Z,1.57
2019-05-14T22:21:18.402Z,1.70
2019-05-14T22:23:48.173Z,1.80
2019-05-14T22:26:18.638Z,1.60
2019-05-14T22:28:48.019Z,1.70
2019-05-14T22:31:19.296Z,1.60
2019-05-14T22:33:48.051Z,1.60
2019-05-14T22:36:21.398Z,1.40
2019-05-14T22:38:49.477Z,1.80
2019-05-14T22:41:18.603Z,1.43
2019-05-14T22:43:51.105Z,1.50
2019-05-14T22:46:18.508Z,1.93
2019-05-14T22:48:51.313Z,1.80
2019-05-14T22:51:18.447Z,1.97
2019-05-14T22:53:49.440Z,1.90
2019-05-14T22:56:18.433Z,1.77
2019-05-14T22:58:48.849Z,1.90
2019-05-14T23:01:18.591Z,1.80
2019-05-14T23:03:48.981Z,1.57
2019-05-14T23:06:18.856Z,1.63
2019-05-14T23:08:48.842Z,1.40
2019-05-14T23:11:19.699Z,1.77
2019-05-14T23:13:49.083Z,1.60
2019-05-14T23:16:30.922Z,1.37
2019-05-14T23:18:49.001Z,1.80
2019-05-14T23:21:18.062Z,1.73
2019-05-14T23:23:47.226Z,1.60
2019-05-14T23:26:16.305Z,1.50
2019-05-14T23:28:46.087Z,1.70
2019-05-14T23:31:16.247Z,1.70
2019-05-14T23:33:45.351Z,1.53
2019-05-14T23:36:14.654Z,1.30
2019-05-14T23:38:45.012Z,1.50
2019-05-14T23:41:14.112Z,1.57
2019-05-14T23:43:43.187Z,1.40
2019-05-14T23:46:12.259Z,1.43
2019-05-14T23:48:41.378Z,1.40
2019-05-14T23:51:10.457Z,1.30
2019-05-14T23:53:39.561Z,1.30
2019-05-14T23:56:08.945Z,1.53
2019-05-14T23:58:38.372Z,1.20
